createdAt,value
2022-10-31T00:01:36.510Z,17.37
2022-10-31T00:04:05.419Z,17.25
2022-10-31T00:06:33.198Z,17.28
2022-10-31T00:09:04.855Z,17.21
2022-10-31T00:11:32.508Z,17.17
2022-10-31T00:14:00.471Z,17.13
2022-10-31T00:16:30.047Z,17.24
2022-10-31T00:19:02.709Z,17.18
2022-10-31T00:21:31.664Z,17.20
2022-10-31T00:24:00.934Z,17.19
2022-10-31T00:26:31.364Z,16.92
2022-10-31T00:29:00.999Z,17.15
2022-10-31T00:31:28.337Z,17.13
2022-10-31T00:33:55.635Z,16.96
2022-10-31T00:36:22.994Z,17.06
2022-10-31T00:38:50.378Z,17.14
2022-10-31T00:41:19.128Z,17.13
2022-10-31T00:43:46.791Z,16.92
2022-10-31T00:46:14.659Z,16.77
2022-10-31T00:48:42.630Z,16.96
2022-10-31T00:51:11.352Z,16.88
2022-10-31T00:53:38.624Z,17.01
2022-10-31T00:56:07.066Z,16.84
2022-10-31T00:58:34.386Z,16.79
2022-10-31T01:01:01.774Z,16.66
2022-10-31T01:03:35.332Z,16.71
2022-10-31T01:06:08.124Z,16.56
2022-10-31T01:08:37.792Z,16.69
2022-10-31T01:11:22.184Z,16.41
2022-10-31T01:13:55.975Z,16.63
2022-10-31T01:16:28.182Z,16.34
2022-10-31T01:18:55.459Z,16.41
2022-10-31T01:21:28.726Z,16.56
2022-10-31T01:23:58.248Z,16.63
2022-10-31T01:26:33.388Z,16.41
2022-10-31T01:29:08.038Z,16.48
2022-10-31T01:31:40.305Z,16.40
2022-10-31T01:34:15.049Z,16.50
2022-10-31T01:36:42.816Z,16.38
2022-10-31T01:39:15.558Z,16.22
2022-10-31T01:41:50.810Z,16.50
2022-10-31T01:44:18.628Z,16.69
2022-10-31T01:47:20.557Z,16.62
2022-10-31T01:50:00.439Z,16.59
2022-10-31T01:53:03.636Z,16.63
2022-10-31T01:55:38.375Z,16.55
2022-10-31T02:01:08.197Z,16.64
2022-10-31T02:03:35.908Z,16.65
2022-10-31T02:06:08.147Z,16.59
2022-10-31T02:08:38.210Z,16.47
2022-10-31T02:11:06.349Z,16.40
2022-10-31T02:13:35.655Z,16.25
2022-10-31T02:16:02.942Z,16.15
2022-10-31T02:18:31.528Z,16.24
2022-10-31T02:21:31.394Z,15.82
2022-10-31T02:25:57.363Z,16.15
2022-10-31T02:29:20.884Z,16.22
2022-10-31T02:32:22.154Z,16.15
2022-10-31T02:35:48.816Z,16.19
2022-10-31T02:39:03.956Z,15.93
2022-10-31T02:42:39.639Z,16.08
2022-10-31T02:45:36.647Z,15.91
2022-10-31T02:48:19.918Z,15.88
2022-10-31T02:51:01.818Z,16.02
2022-10-31T02:53:35.915Z,15.83
2022-10-31T02:56:15.934Z,15.88
2022-10-31T02:59:01.824Z,15.90
2022-10-31T03:02:19.014Z,15.94
2022-10-31T03:05:25.852Z,15.83
2022-10-31T03:08:36.732Z,15.64
2022-10-31T03:11:09.881Z,15.90
2022-10-31T03:14:16.788Z,15.84
2022-10-31T03:16:56.944Z,15.84
2022-10-31T03:19:46.718Z,15.94
2022-10-31T03:22:29.743Z,15.92
2022-10-31T03:24:58.633Z,15.70
2022-10-31T03:27:31.674Z,15.90
2022-10-31T03:30:06.634Z,15.95
2022-10-31T03:32:49.890Z,15.91
2022-10-31T03:35:23.630Z,15.90
2022-10-31T03:37:54.615Z,15.82
2022-10-31T03:40:26.992Z,15.91
2022-10-31T03:43:04.347Z,15.88
2022-10-31T03:45:33.597Z,15.76
2022-10-31T03:48:01.707Z,15.74
2022-10-31T03:51:07.183Z,15.74
2022-10-31T03:53:48.664Z,15.76
2022-10-31T03:56:41.201Z,15.80
2022-10-31T03:59:22.613Z,15.73
2022-10-31T04:02:00.064Z,15.38
2022-10-31T04:04:29.534Z,15.53
2022-10-31T04:07:00.259Z,15.60
2022-10-31T04:09:32.166Z,15.56
2022-10-31T04:12:03.683Z,15.51
2022-10-31T04:14:34.477Z,15.59
2022-10-31T04:17:07.083Z,15.60
2022-10-31T04:19:35.069Z,15.57
2022-10-31T04:22:02.597Z,15.51
2022-10-31T04:24:31.570Z,15.61
2022-10-31T04:26:59.527Z,15.61
2022-10-31T04:29:26.811Z,15.53
2022-10-31T04:31:54.088Z,15.49
2022-10-31T04:34:22.374Z,15.68
2022-10-31T04:36:49.630Z,15.52
2022-10-31T04:39:20.325Z,15.56
2022-10-31T04:41:51.379Z,15.52
2022-10-31T04:44:19.068Z,15.50
2022-10-31T04:46:46.338Z,15.47
2022-10-31T04:49:13.919Z,15.51
2022-10-31T04:51:41.979Z,15.25
2022-10-31T04:54:09.342Z,15.41
2022-10-31T04:56:36.619Z,15.36
2022-10-31T04:59:04.052Z,15.39
2022-10-31T05:01:31.370Z,15.49
2022-10-31T05:03:58.706Z,15.55
2022-10-31T05:06:26.760Z,15.28
2022-10-31T05:08:54.088Z,15.49
2022-10-31T05:11:21.340Z,15.32
2022-10-31T05:13:48.619Z,15.16
2022-10-31T05:16:15.863Z,15.19
2022-10-31T05:18:43.132Z,15.20
2022-10-31T05:21:10.423Z,15.22
2022-10-31T05:23:37.679Z,15.12
2022-10-31T05:26:05.588Z,15.10
2022-10-31T05:28:32.871Z,15.32
2022-10-31T05:31:00.142Z,15.26
2022-10-31T05:33:27.387Z,14.93
2022-10-31T05:35:55.615Z,15.21
2022-10-31T05:38:22.882Z,15.16
2022-10-31T05:40:50.175Z,15.06
2022-10-31T05:43:17.445Z,15.18
2022-10-31T05:45:44.719Z,15.23
2022-10-31T05:48:12.069Z,14.95
2022-10-31T05:50:39.336Z,15.27
2022-10-31T05:53:07.144Z,15.17
2022-10-31T05:55:34.525Z,15.04
2022-10-31T05:58:02.213Z,15.00
2022-10-31T06:00:30.670Z,14.91
2022-10-31T06:05:57.347Z,15.01
2022-10-31T06:08:24.667Z,15.18
2022-10-31T06:10:54.007Z,15.05
2022-10-31T06:13:21.275Z,15.30
2022-10-31T06:15:48.592Z,15.28
2022-10-31T06:18:15.859Z,15.32
2022-10-31T06:20:43.135Z,15.33
2022-10-31T06:23:10.595Z,15.23
2022-10-31T06:25:37.939Z,15.28
2022-10-31T06:28:05.843Z,15.51
2022-10-31T06:30:34.267Z,15.36
2022-10-31T06:33:07.606Z,15.38
2022-10-31T06:35:34.913Z,15.27
2022-10-31T06:38:03.102Z,15.33
2022-10-31T06:40:30.656Z,15.20
2022-10-31T06:43:02.762Z,15.28
2022-10-31T06:45:30.567Z,15.36
2022-10-31T06:50:45.957Z,15.34
2022-10-31T06:53:15.140Z,15.43
2022-10-31T06:55:43.477Z,15.38
2022-10-31T06:58:12.256Z,15.43
2022-10-31T07:00:39.633Z,15.44
2022-10-31T07:03:13.655Z,15.54
2022-10-31T07:05:41.304Z,15.46
2022-10-31T07:08:13.599Z,15.69
2022-10-31T07:10:43.777Z,15.66
2022-10-31T07:13:15.793Z,15.66
2022-10-31T07:15:45.013Z,15.38
2022-10-31T07:18:13.489Z,15.42
2022-10-31T07:20:40.811Z,15.39
2022-10-31T07:23:11.756Z,15.28
2022-10-31T07:25:40.832Z,15.35
2022-10-31T07:28:12.757Z,15.37
2022-10-31T07:30:40.456Z,15.56
2022-10-31T07:33:07.800Z,15.63
2022-10-31T07:35:35.862Z,15.59
2022-10-31T07:38:13.996Z,15.64
2022-10-31T07:40:43.424Z,15.65
2022-10-31T07:43:14.602Z,15.78
2022-10-31T07:45:42.450Z,15.74
2022-10-31T07:48:09.783Z,15.87
2022-10-31T07:50:37.079Z,15.76
2022-10-31T07:53:13.996Z,15.96
2022-10-31T07:55:42.529Z,15.95
2022-10-31T07:58:17.793Z,15.93
2022-10-31T08:00:48.482Z,16.00
2022-10-31T08:03:20.125Z,15.72
2022-10-31T08:05:48.191Z,15.76
2022-10-31T08:08:16.648Z,15.90
2022-10-31T08:10:44.311Z,16.06
2022-10-31T08:13:14.827Z,16.05
2022-10-31T08:15:43.132Z,16.01
2022-10-31T08:18:15.936Z,16.12
2022-10-31T08:20:46.396Z,16.35
2022-10-31T08:23:14.978Z,16.26
2022-10-31T08:25:44.934Z,16.14
2022-10-31T08:28:12.822Z,16.11
2022-10-31T08:30:41.235Z,16.05
2022-10-31T08:33:20.340Z,15.87
2022-10-31T08:35:48.536Z,16.08
2022-10-31T08:38:16.085Z,15.94
2022-10-31T08:40:43.829Z,15.88
2022-10-31T08:43:18.228Z,16.17
2022-10-31T08:45:50.318Z,16.22
2022-10-31T08:48:18.742Z,16.09
2022-10-31T08:50:47.304Z,16.25
2022-10-31T08:53:20.432Z,16.43
2022-10-31T08:55:48.497Z,16.09
2022-10-31T08:58:21.090Z,16.24
2022-10-31T09:00:55.604Z,16.47
2022-10-31T09:03:28.226Z,16.48
2022-10-31T09:06:06.632Z,16.30
2022-10-31T09:08:34.674Z,16.61
2022-10-31T09:11:03.085Z,16.76
2022-10-31T09:13:30.638Z,16.58
2022-10-31T09:15:59.664Z,16.61
2022-10-31T09:18:28.931Z,16.87
2022-10-31T09:21:00.405Z,16.94
2022-10-31T09:23:28.015Z,17.10
2022-10-31T09:25:56.230Z,16.91
2022-10-31T09:28:26.115Z,17.24
2022-10-31T09:30:55.350Z,16.95
2022-10-31T09:33:23.335Z,17.18
2022-10-31T09:35:50.869Z,17.24
2022-10-31T09:38:22.212Z,17.24
2022-10-31T09:41:19.282Z,17.24
2022-10-31T09:44:22.835Z,17.36
2022-10-31T09:47:36.713Z,17.25
2022-10-31T09:51:01.466Z,17.44
2022-10-31T09:54:02.512Z,17.56
2022-10-31T09:56:32.063Z,17.59
2022-10-31T09:59:03.537Z,17.45
2022-10-31T10:02:35.677Z,17.64
2022-10-31T10:05:14.331Z,17.54
2022-10-31T10:08:15.303Z,17.67
2022-10-31T10:11:19.030Z,17.89
2022-10-31T10:15:01.624Z,18.13
2022-10-31T10:18:06.003Z,18.17
2022-10-31T10:21:26.672Z,18.73
2022-10-31T10:24:33.343Z,18.83
2022-10-31T10:27:55.664Z,18.97
2022-10-31T10:30:47.889Z,19.53
2022-10-31T10:33:36.270Z,19.21
2022-10-31T10:36:41.474Z,19.39
2022-10-31T10:39:29.443Z,19.61
2022-10-31T10:42:18.419Z,19.89
2022-10-31T10:45:09.566Z,19.93
2022-10-31T10:48:03.013Z,20.04
2022-10-31T10:50:45.396Z,20.41
2022-10-31T10:54:09.449Z,21.04
2022-10-31T10:57:24.982Z,21.16
2022-10-31T10:59:53.128Z,21.39
2022-10-31T11:02:31.590Z,21.09
2022-10-31T11:05:03.340Z,20.71
2022-10-31T11:07:41.240Z,20.68
2022-10-31T11:10:16.776Z,20.81
2022-10-31T11:13:22.155Z,20.83
2022-10-31T11:16:05.439Z,21.36
2022-10-31T11:18:46.376Z,22.09
2022-10-31T11:21:34.251Z,22.28
2022-10-31T11:24:28.384Z,22.71
2022-10-31T11:27:22.319Z,23.15
2022-10-31T11:29:54.506Z,23.42
2022-10-31T11:32:28.344Z,23.58
2022-10-31T11:35:09.461Z,23.72
2022-10-31T11:37:43.672Z,23.19
2022-10-31T11:40:26.961Z,23.80
2022-10-31T11:42:59.782Z,24.36
2022-10-31T11:45:34.891Z,23.97
2022-10-31T11:48:15.062Z,23.73
2022-10-31T11:50:48.375Z,24.28
2022-10-31T11:53:25.590Z,24.33
2022-10-31T11:56:20.968Z,24.74
2022-10-31T11:59:32.420Z,24.85
2022-10-31T12:02:02.698Z,24.84
2022-10-31T12:04:46.560Z,24.87
2022-10-31T12:07:13.893Z,25.32
2022-10-31T12:09:42.358Z,25.40
2022-10-31T12:12:15.106Z,25.47
2022-10-31T12:15:28.918Z,25.27
2022-10-31T12:19:05.653Z,25.49
2022-10-31T12:22:35.071Z,25.92
2022-10-31T12:25:39.350Z,26.30
2022-10-31T12:29:13.062Z,26.41
2022-10-31T12:32:06.976Z,26.20
2022-10-31T12:35:05.328Z,26.42
2022-10-31T12:38:07.667Z,26.73
2022-10-31T12:41:20.144Z,26.60
2022-10-31T12:44:26.049Z,25.56
2022-10-31T12:47:28.214Z,25.50
2022-10-31T12:50:56.769Z,25.66
2022-10-31T12:53:53.203Z,25.64
2022-10-31T12:56:41.801Z,25.88
2022-10-31T12:59:47.247Z,25.89
2022-10-31T13:02:45.364Z,25.57
2022-10-31T13:05:44.370Z,25.71
2022-10-31T13:08:25.719Z,25.58
2022-10-31T13:11:17.576Z,25.40
2022-10-31T13:14:27.232Z,25.19
2022-10-31T13:16:57.311Z,25.17
2022-10-31T13:19:37.052Z,25.19
2022-10-31T13:22:32.261Z,25.06
2022-10-31T13:25:29.624Z,24.96
2022-10-31T13:31:43.082Z,24.59
2022-10-31T13:34:31.435Z,24.52
2022-10-31T13:37:26.630Z,24.42
2022-10-31T13:40:33.824Z,24.26
2022-10-31T13:43:57.886Z,24.27
2022-10-31T13:46:32.953Z,24.13
2022-10-31T13:49:00.754Z,24.14
2022-10-31T13:51:36.027Z,24.07
2022-10-31T13:54:35.023Z,23.96
2022-10-31T13:57:02.683Z,24.04
2022-10-31T13:59:33.751Z,23.93
2022-10-31T14:02:14.930Z,23.89
2022-10-31T14:05:09.938Z,23.90
2022-10-31T14:07:46.598Z,23.77
2022-10-31T14:10:47.688Z,23.59
2022-10-31T14:13:46.292Z,23.91
2022-10-31T14:16:32.271Z,23.66
2022-10-31T14:19:14.766Z,23.77
2022-10-31T14:21:49.356Z,23.59
2022-10-31T14:24:25.711Z,23.75
2022-10-31T14:27:27.231Z,23.55
2022-10-31T14:29:54.559Z,23.75
2022-10-31T14:32:27.422Z,23.75
2022-10-31T14:34:58.535Z,23.59
2022-10-31T14:38:09.314Z,23.72
2022-10-31T14:41:33.722Z,23.81
2022-10-31T14:44:27.963Z,23.55
2022-10-31T14:47:47.501Z,23.70
2022-10-31T14:50:43.664Z,23.71
2022-10-31T14:53:33.296Z,23.51
2022-10-31T14:56:06.715Z,23.47
2022-10-31T14:58:47.390Z,23.50
2022-10-31T15:01:30.708Z,23.48
2022-10-31T15:04:24.748Z,23.50
2022-10-31T15:07:25.194Z,23.40
2022-10-31T15:10:07.170Z,23.50
2022-10-31T15:12:39.823Z,23.18
2022-10-31T15:15:24.365Z,23.15
2022-10-31T15:18:04.923Z,23.19
2022-10-31T15:20:48.227Z,23.15
2022-10-31T15:23:30.451Z,23.20
2022-10-31T15:26:06.471Z,22.97
2022-10-31T15:28:33.972Z,22.96
2022-10-31T15:31:04.182Z,23.13
2022-10-31T15:33:47.919Z,23.03
2022-10-31T15:36:29.885Z,22.97
2022-10-31T15:39:00.159Z,22.96
2022-10-31T15:41:56.903Z,23.00
2022-10-31T15:44:37.282Z,22.79
2022-10-31T15:47:25.433Z,22.75
2022-10-31T15:49:59.692Z,22.68
2022-10-31T15:52:48.510Z,22.64
2022-10-31T15:55:31.438Z,22.71
2022-10-31T15:58:11.363Z,22.38
2022-10-31T16:00:39.617Z,22.60
2022-10-31T16:03:32.917Z,22.34
2022-10-31T16:06:05.590Z,22.21
2022-10-31T16:08:37.070Z,22.00
2022-10-31T16:11:13.661Z,21.76
2022-10-31T16:14:25.481Z,21.55
2022-10-31T16:16:58.712Z,20.95
2022-10-31T16:19:34.757Z,21.31
2022-10-31T16:22:37.368Z,21.50
2022-10-31T16:25:37.618Z,21.52
2022-10-31T16:28:24.518Z,21.33
2022-10-31T16:30:57.764Z,21.49
2022-10-31T16:33:37.929Z,21.48
2022-10-31T16:36:39.357Z,21.34
2022-10-31T16:39:08.123Z,21.25
2022-10-31T16:41:47.046Z,21.06
2022-10-31T16:44:26.945Z,20.99
2022-10-31T16:47:17.927Z,21.14
2022-10-31T16:49:50.748Z,21.12
2022-10-31T16:52:19.437Z,20.94
2022-10-31T16:54:46.831Z,20.88
2022-10-31T16:57:21.144Z,20.84
2022-10-31T16:59:54.830Z,21.08
2022-10-31T17:02:22.803Z,20.90
2022-10-31T17:04:53.817Z,20.47
2022-10-31T17:07:24.085Z,20.84
2022-10-31T17:09:51.500Z,20.64
2022-10-31T17:12:27.582Z,20.58
2022-10-31T17:14:55.046Z,20.43
2022-10-31T17:17:22.378Z,20.58
2022-10-31T17:19:49.942Z,20.50
2022-10-31T17:22:17.377Z,20.48
2022-10-31T17:24:44.836Z,20.50
2022-10-31T17:27:12.387Z,20.50
2022-10-31T17:29:39.822Z,20.42
2022-10-31T17:32:07.317Z,20.42
2022-10-31T17:34:34.849Z,20.27
2022-10-31T17:37:02.263Z,20.37
2022-10-31T17:39:29.650Z,20.46
2022-10-31T17:41:57.091Z,20.39
2022-10-31T17:44:24.378Z,20.21
2022-10-31T17:46:51.630Z,20.25
2022-10-31T17:49:19.486Z,20.31
2022-10-31T17:51:46.777Z,20.07
2022-10-31T17:54:18.362Z,20.06
2022-10-31T17:56:45.698Z,19.98
2022-10-31T17:59:12.961Z,20.15
2022-10-31T18:01:40.371Z,19.92
2022-10-31T18:04:07.669Z,20.08
2022-10-31T18:06:34.932Z,20.11
2022-10-31T18:09:06.932Z,20.06
2022-10-31T18:11:34.240Z,20.09
2022-10-31T18:14:01.618Z,20.17
2022-10-31T18:16:29.760Z,20.25
2022-10-31T18:19:00.763Z,20.14
2022-10-31T18:21:30.785Z,20.20
2022-10-31T18:24:00.592Z,20.01
2022-10-31T18:26:28.563Z,20.08
2022-10-31T18:28:55.900Z,19.81
2022-10-31T18:31:23.274Z,20.00
2022-10-31T18:33:55.234Z,19.99
2022-10-31T18:36:23.805Z,19.82
2022-10-31T18:38:51.068Z,19.77
2022-10-31T18:41:18.795Z,19.62
2022-10-31T18:43:46.171Z,19.71
2022-10-31T18:46:17.587Z,19.59
2022-10-31T18:48:46.416Z,19.47
2022-10-31T18:51:18.364Z,19.64
2022-10-31T18:53:56.423Z,19.48
2022-10-31T18:56:25.251Z,19.51
2022-10-31T18:58:53.063Z,19.24
2022-10-31T19:01:22.401Z,19.17
2022-10-31T19:03:56.241Z,19.56
2022-10-31T19:06:26.762Z,19.22
2022-10-31T19:09:05.170Z,19.38
2022-10-31T19:11:34.925Z,19.30
2022-10-31T19:14:02.447Z,19.24
2022-10-31T19:16:30.288Z,19.15
2022-10-31T19:19:00.017Z,19.21
2022-10-31T19:21:27.905Z,19.17
2022-10-31T19:23:56.507Z,19.03
2022-10-31T19:26:26.472Z,19.29
2022-10-31T19:28:56.410Z,19.12
2022-10-31T19:31:23.965Z,19.00
2022-10-31T19:33:51.257Z,19.02
2022-10-31T19:36:20.850Z,18.88
2022-10-31T19:38:52.481Z,18.91
2022-10-31T19:41:28.283Z,18.84
2022-10-31T19:43:59.414Z,18.92
2022-10-31T19:46:51.783Z,18.78
2022-10-31T19:49:14.547Z,18.82
2022-10-31T19:51:43.302Z,18.83
2022-10-31T19:54:12.168Z,18.77
2022-10-31T19:56:39.438Z,18.65
2022-10-31T19:59:06.744Z,18.58
2022-10-31T20:01:34.085Z,18.72
2022-10-31T20:04:01.640Z,18.73
2022-10-31T20:06:41.413Z,18.66
2022-10-31T20:09:16.060Z,18.63
2022-10-31T20:11:46.361Z,18.62
2022-10-31T20:14:18.513Z,18.67
2022-10-31T20:16:46.694Z,18.46
2022-10-31T20:19:14.327Z,18.51
2022-10-31T20:21:41.962Z,18.57
2022-10-31T20:24:11.054Z,18.56
2022-10-31T20:26:41.009Z,18.60
2022-10-31T20:29:15.933Z,18.38
2022-10-31T20:31:45.658Z,18.55
2022-10-31T20:34:14.348Z,18.56
2022-10-31T20:36:41.885Z,18.69
2022-10-31T20:39:10.322Z,18.43
2022-10-31T20:41:39.443Z,18.35
2022-10-31T20:44:07.199Z,18.31
2022-10-31T20:46:34.575Z,18.42
2022-10-31T20:49:02.138Z,18.47
2022-10-31T20:51:31.645Z,18.51
2022-10-31T20:54:01.168Z,18.15
2022-10-31T20:56:29.915Z,18.31
2022-10-31T20:58:57.985Z,18.37
2022-10-31T21:01:33.504Z,18.23
2022-10-31T21:04:01.294Z,18.38
2022-10-31T21:06:30.349Z,18.23
2022-10-31T21:08:58.402Z,17.98
2022-10-31T21:11:28.587Z,17.99
2022-10-31T21:13:56.237Z,18.13
2022-10-31T21:16:35.830Z,18.25
2022-10-31T21:19:05.178Z,17.77
2022-10-31T21:21:36.808Z,18.00
2022-10-31T21:24:16.243Z,17.90
2022-10-31T21:26:50.002Z,17.85
2022-10-31T21:29:19.214Z,17.71
2022-10-31T21:31:47.844Z,17.94
2022-10-31T21:34:15.903Z,17.79
2022-10-31T21:36:43.208Z,17.79
2022-10-31T21:39:10.816Z,17.98
2022-10-31T21:41:38.118Z,18.04
2022-10-31T21:44:06.507Z,18.20
2022-10-31T21:46:34.543Z,17.97
2022-10-31T21:49:04.316Z,18.06
2022-10-31T21:51:36.063Z,18.00
2022-10-31T21:54:22.668Z,18.05
2022-10-31T21:56:51.057Z,18.05
2022-10-31T21:59:18.327Z,17.95
2022-10-31T22:01:45.704Z,17.96
2022-10-31T22:04:13.392Z,17.92
2022-10-31T22:06:40.664Z,18.04
2022-10-31T22:09:14.072Z,18.06
2022-10-31T22:11:43.322Z,17.83
2022-10-31T22:14:15.242Z,17.76
2022-10-31T22:16:43.537Z,17.96
2022-10-31T22:19:14.298Z,17.88
2022-10-31T22:21:48.739Z,17.91
2022-10-31T22:24:18.396Z,17.83
2022-10-31T22:26:46.149Z,17.77
2022-10-31T22:29:18.828Z,17.78
2022-10-31T22:31:53.546Z,17.68
2022-10-31T22:34:24.742Z,17.87
2022-10-31T22:36:53.794Z,17.80
2022-10-31T22:39:21.166Z,17.93
2022-10-31T22:41:48.425Z,17.90
2022-10-31T22:44:15.692Z,17.92
2022-10-31T22:46:42.955Z,17.77
2022-10-31T22:49:14.990Z,17.81
2022-10-31T22:51:43.909Z,17.85
2022-10-31T22:54:18.258Z,18.06
2022-10-31T22:56:46.190Z,17.98
2022-10-31T22:59:16.645Z,18.12
2022-10-31T23:01:45.812Z,17.87
2022-10-31T23:04:16.152Z,17.90
2022-10-31T23:06:43.941Z,18.04
2022-10-31T23:09:16.891Z,18.08
2022-10-31T23:11:45.040Z,17.86
2022-10-31T23:14:20.743Z,17.92
2022-10-31T23:16:56.925Z,17.66
2022-10-31T23:19:30.472Z,17.90
2022-10-31T23:22:04.071Z,17.92
2022-10-31T23:24:46.185Z,17.97
2022-10-31T23:27:19.786Z,17.87
2022-10-31T23:29:58.704Z,17.79
2022-10-31T23:32:35.236Z,17.90
2022-10-31T23:35:10.166Z,18.12
2022-10-31T23:37:39.225Z,18.08
2022-10-31T23:40:08.746Z,17.83
2022-10-31T23:42:36.106Z,18.10
2022-10-31T23:45:03.714Z,17.96
2022-10-31T23:47:30.973Z,17.95
2022-10-31T23:49:58.225Z,18.00
2022-10-31T23:52:25.525Z,17.83
2022-10-31T23:54:52.880Z,17.73
2022-10-31T23:57:20.955Z,17.78
2022-10-31T23:59:48.201Z,17.85
